Time;durP1;ratioP1;P1;durP2;ratioP2;P2;SDS_P1;SDS_P2;PMS_P1;PMS_P2;Temp;Humidity;BMP_temperature;BMP_pressure;BME280_temperature;BME280_humidity;BME280_pressure;Samples;Min_cycle;Max_cycle;Signal;HPM_P1;HPM_P2
2023/10/16 00:00:43;;;;;;;8.00;7.20;;;21.80;91.80;;;;;;6223028;28;89560;-68
2023/10/16 00:03:45;;;;;;;8.93;7.55;;;21.80;91.80;;;;;;6225677;28;88401;-68
2023/10/16 00:06:49;;;;;;;9.77;8.00;;;21.80;91.80;;;;;;6233233;28;88293;-68
2023/10/16 00:09:53;;;;;;;8.40;7.60;;;21.80;91.80;;;;;;6211312;28;90320;-68
2023/10/16 00:12:56;;;;;;;8.25;7.35;;;21.80;92.20;;;;;;6221342;28;90861;-68
2023/10/16 00:16:02;;;;;;;8.32;7.45;;;21.80;91.80;;;;;;6222910;28;89129;-68
2023/10/16 00:19:09;;;;;;;9.98;8.35;;;21.80;91.80;;;;;;6218304;28;89299;-68
2023/10/16 00:22:16;;;;;;;9.43;7.80;;;21.80;91.80;;;;;;6225383;28;89144;-68
2023/10/16 00:25:21;;;;;;;8.10;7.32;;;21.80;91.80;;;;;;6220907;28;89047;-68
2023/10/16 00:28:22;;;;;;;7.93;7.20;;;21.80;91.80;;;;;;6210526;28;87845;-68
2023/10/16 00:31:32;;;;;;;8.65;7.53;;;21.80;91.80;;;;;;6217779;28;89347;-68
2023/10/16 00:34:34;;;;;;;8.10;7.30;;;21.80;91.80;;;;;;6233897;28;88417;-68
2023/10/16 00:37:36;;;;;;;8.30;7.07;;;21.80;91.80;;;;;;6221850;28;89049;-68
2023/10/16 00:40:39;;;;;;;7.88;6.88;;;21.80;91.90;;;;;;6216921;28;89039;-68
2023/10/16 00:43:43;;;;;;;8.18;7.38;;;21.80;91.90;;;;;;6213660;28;89970;-68
2023/10/16 00:46:48;;;;;;;8.32;7.38;;;21.80;91.90;;;;;;6217685;28;89495;-68
2023/10/16 00:49:50;;;;;;;8.02;7.22;;;21.80;91.90;;;;;;6226938;28;89301;-68
2023/10/16 00:52:52;;;;;;;8.10;7.30;;;21.70;91.80;;;;;;6224518;28;88829;-68
2023/10/16 00:55:56;;;;;;;8.98;7.88;;;21.80;91.90;;;;;;6212485;28;89214;-68
2023/10/16 00:58:58;;;;;;;8.73;7.40;;;21.70;91.90;;;;;;6208515;28;89078;-68
2023/10/16 01:02:13;;;;;;;8.07;7.28;;;21.80;91.90;;;;;;6218770;28;89565;-67
2023/10/16 01:05:23;;;;;;;7.60;6.88;;;21.80;91.90;;;;;;6222677;28;88369;-68
2023/10/16 01:08:26;;;;;;;9.18;8.02;;;21.80;91.90;;;;;;6218706;28;87965;-68
2023/10/16 01:11:28;;;;;;;8.23;7.43;;;21.70;91.80;;;;;;6221275;28;87568;-67
2023/10/16 01:14:30;;;;;;;8.43;7.57;;;21.80;91.90;;;;;;6218073;28;89902;-67
2023/10/16 01:17:35;;;;;;;8.13;7.32;;;21.80;91.90;;;;;;6223655;28;89076;-68
2023/10/16 01:20:38;;;;;;;8.35;7.45;;;21.80;91.90;;;;;;6221914;28;89125;-68
2023/10/16 01:23:44;;;;;;;7.53;6.82;;;21.80;91.90;;;;;;6233421;28;88199;-68
2023/10/16 01:26:46;;;;;;;9.32;7.80;;;21.70;91.90;;;;;;6217031;28;88948;-68
2023/10/16 01:29:48;;;;;;;8.82;7.93;;;21.80;91.90;;;;;;6208564;28;89009;-67
2023/10/16 01:32:50;;;;;;;7.85;7.05;;;21.80;91.90;;;;;;6214275;28;89229;-68
2023/10/16 01:35:52;;;;;;;8.18;7.38;;;21.70;92.00;;;;;;6216481;28;87427;-67
2023/10/16 01:38:58;;;;;;;9.40;7.57;;;21.70;92.00;;;;;;6217740;28;89062;-67
2023/10/16 01:42:03;;;;;;;7.95;7.15;;;21.70;92.00;;;;;;6220146;28;89250;-67
2023/10/16 01:45:06;;;;;;;7.45;6.75;;;21.70;92.00;;;;;;6226826;28;89638;-67
2023/10/16 01:48:11;;;;;;;7.50;6.80;;;21.70;92.00;;;;;;6221168;28;88982;-67
2023/10/16 01:51:18;;;;;;;7.80;7.00;;;21.80;92.00;;;;;;6212344;28;89151;-68
2023/10/16 01:54:23;;;;;;;7.80;7.00;;;21.70;92.00;;;;;;6215472;28;89251;-67
2023/10/16 01:57:26;;;;;;;7.97;7.18;;;21.70;92.00;;;;;;6224856;28;89483;-68
2023/10/16 02:00:34;;;;;;;8.32;7.43;;;21.70;92.00;;;;;;6220250;28;88977;-67
2023/10/16 02:03:36;;;;;;;8.07;7.28;;;21.70;92.00;;;;;;6226656;28;87991;-67
2023/10/16 02:06:39;;;;;;;10.00;7.97;;;21.70;92.00;;;;;;6220542;28;88358;-68
2023/10/16 02:09:42;;;;;;;8.20;7.40;;;21.70;92.00;;;;;;6228619;28;88867;-68
2023/10/16 02:12:44;;;;;;;7.65;6.93;;;21.70;92.00;;;;;;6222957;28;89124;-68
2023/10/16 02:15:47;;;;;;;9.38;7.60;;;21.70;92.00;;;;;;6215069;28;89996;-68
2023/10/16 02:18:49;;;;;;;8.43;7.63;;;21.70;92.00;;;;;;6224999;28;89135;-68
2023/10/16 02:21:53;;;;;;;8.40;7.60;;;21.70;92.00;;;;;;6224778;28;89392;-68
2023/10/16 02:24:57;;;;;;;8.82;7.93;;;21.70;91.90;;;;;;6213659;28;88101;-67
2023/10/16 02:27:59;;;;;;;8.23;7.43;;;21.70;92.00;;;;;;6226616;28;89180;-68
2023/10/16 02:31:10;;;;;;;8.40;7.60;;;21.70;92.00;;;;;;6207952;28;89181;-67
2023/10/16 02:34:14;;;;;;;9.65;7.85;;;21.70;92.00;;;;;;6210575;28;89021;-68
2023/10/16 02:37:16;;;;;;;8.63;7.82;;;21.70;92.00;;;;;;6216871;28;87419;-67
2023/10/16 02:40:19;;;;;;;8.23;7.38;;;21.70;92.00;;;;;;6206645;28;87863;-68
2023/10/16 02:43:21;;;;;;;8.50;7.63;;;21.70;92.00;;;;;;6208429;28;89137;-68
2023/10/16 02:46:23;;;;;;;9.88;8.48;;;21.70;92.00;;;;;;6208237;28;89972;-68
2023/10/16 02:49:25;;;;;;;9.60;8.50;;;21.70;92.00;;;;;;6218501;28;89142;-68
2023/10/16 02:52:30;;;;;;;9.15;8.20;;;21.70;92.00;;;;;;6228815;28;89187;-68
2023/10/16 02:55:33;;;;;;;8.27;7.47;;;21.70;92.00;;;;;;6217347;28;88436;-67
2023/10/16 02:58:42;;;;;;;8.75;7.90;;;21.70;92.00;;;;;;6221446;28;87784;-68
2023/10/16 03:01:44;;;;;;;8.60;7.80;;;21.70;92.00;;;;;;6217514;28;89229;-68
2023/10/16 03:04:51;;;;;;;9.63;8.63;;;21.70;92.00;;;;;;6230769;28;89054;-68
2023/10/16 03:07:54;;;;;;;9.65;8.60;;;21.70;92.00;;;;;;6231095;28;88410;-67
2023/10/16 03:10:59;;;;;;;8.80;7.90;;;21.70;92.00;;;;;;6219390;28;88768;-68
2023/10/16 03:14:07;;;;;;;9.02;8.13;;;21.70;91.90;;;;;;6217571;28;89072;-68
2023/10/16 03:17:10;;;;;;;9.93;8.55;;;21.70;92.00;;;;;;6222361;28;90044;-67
2023/10/16 03:20:19;;;;;;;8.98;8.02;;;21.70;92.00;;;;;;6227766;28;89228;-68
2023/10/16 03:23:21;;;;;;;8.95;8.05;;;21.70;92.00;;;;;;6222002;28;89288;-68
2023/10/16 03:26:27;;;;;;;9.55;8.55;;;21.70;92.00;;;;;;6230265;28;89130;-67
2023/10/16 03:29:29;;;;;;;9.85;8.70;;;21.70;92.00;;;;;;6207952;28;89118;-66
2023/10/16 03:32:33;;;;;;;9.07;8.18;;;21.70;92.00;;;;;;6206956;28;89063;-67
2023/10/16 03:35:38;;;;;;;9.30;8.40;;;21.60;91.90;;;;;;6219305;28;89275;-67
2023/10/16 03:38:41;;;;;;;8.77;7.90;;;21.70;92.00;;;;;;6214415;28;88294;-67
2023/10/16 03:41:44;;;;;;;9.27;7.97;;;21.70;92.00;;;;;;6220834;28;89042;-67
2023/10/16 03:44:46;;;;;;;9.60;8.68;;;21.70;92.40;;;;;;6226908;28;89318;-67
2023/10/16 03:47:52;;;;;;;9.18;8.27;;;21.60;92.00;;;;;;6227646;28;90214;-67
2023/10/16 03:50:56;;;;;;;10.35;9.25;;;21.60;92.00;;;;;;6216126;28;89425;-67
2023/10/16 03:53:58;;;;;;;9.82;8.82;;;21.60;92.00;;;;;;6224557;28;89269;-67
2023/10/16 03:57:01;;;;;;;9.77;8.77;;;21.70;92.00;;;;;;6222912;28;89054;-67
2023/10/16 04:00:14;;;;;;;9.35;8.30;;;21.60;91.90;;;;;;6209839;28;89440;-67
2023/10/16 04:03:16;;;;;;;9.32;8.32;;;21.70;92.00;;;;;;6215902;28;88080;-67
2023/10/16 04:06:20;;;;;;;9.40;8.50;;;21.70;92.00;;;;;;6205742;28;89056;-67
2023/10/16 04:09:22;;;;;;;9.45;8.40;;;21.60;92.00;;;;;;6213128;28;87170;-67
2023/10/16 04:12:25;;;;;;;9.68;8.68;;;21.60;92.00;;;;;;6221141;28;87920;-67
2023/10/16 04:15:50;;;;;;;10.15;8.70;;;21.60;92.00;;;;;;6216800;28;89070;-67
2023/10/16 04:18:52;;;;;;;11.52;9.45;;;21.60;92.00;;;;;;6222835;28;90084;-67
2023/10/16 04:21:54;;;;;;;10.88;9.40;;;21.60;92.00;;;;;;6205987;28;89332;-67
2023/10/16 04:24:59;;;;;;;9.13;8.23;;;21.60;92.00;;;;;;6225792;28;89436;-67
2023/10/16 04:28:18;;;;;;;10.18;9.18;;;21.60;92.00;;;;;;6227767;28;88814;-68
2023/10/16 04:31:44;;;;;;;9.35;8.30;;;21.60;92.00;;;;;;6210135;28;89156;-67
2023/10/16 04:34:52;;;;;;;8.77;7.88;;;21.60;92.00;;;;;;6224391;28;89368;-67
2023/10/16 04:37:55;;;;;;;9.75;8.75;;;21.60;92.00;;;;;;6218203;28;89162;-67
2023/10/16 04:44:38;;;;;;;9.35;8.45;;;21.60;92.00;;;;;;6222065;28;87249;-67
2023/10/16 04:47:47;;;;;;;9.70;8.70;;;21.60;92.00;;;;;;6212424;28;89129;-67
2023/10/16 04:51:01;;;;;;;9.77;8.80;;;21.60;92.00;;;;;;6210649;28;90325;-67
2023/10/16 04:54:16;;;;;;;9.50;8.50;;;21.60;92.00;;;;;;6227377;28;89222;-67
2023/10/16 05:00:57;;;;;;;9.55;8.55;;;21.60;92.00;;;;;;6208356;28;87508;-67
2023/10/16 05:07:37;;;;;;;9.48;8.40;;;21.60;92.00;;;;;;6219904;28;87284;-67
2023/10/16 05:14:22;;;;;;;9.25;8.35;;;21.60;92.00;;;;;;6232462;28;86890;-67
2023/10/16 05:17:59;;;;;;;9.13;8.23;;;21.60;92.00;;;;;;6216255;28;89154;-67
2023/10/16 05:21:15;;;;;;;9.20;8.27;;;21.60;92.10;;;;;;6216898;28;87664;-67
2023/10/16 06:14:34;;;;;;;10.48;9.48;;;21.60;92.40;;;;;;6211050;28;87720;-67
2023/10/16 06:17:37;;;;;;;11.52;10.32;;;21.60;92.40;;;;;;6213605;28;89044;-67
2023/10/16 06:20:43;;;;;;;11.43;10.30;;;21.60;92.40;;;;;;6224252;28;88019;-67
2023/10/16 06:23:48;;;;;;;10.75;9.65;;;21.60;92.40;;;;;;6227730;28;89089;-67
2023/10/16 06:26:50;;;;;;;10.70;9.63;;;21.60;92.40;;;;;;6222625;28;89144;-68
2023/10/16 06:29:53;;;;;;;10.82;9.80;;;21.60;92.30;;;;;;6220263;28;90323;-67
2023/10/16 06:32:55;;;;;;;10.10;9.20;;;21.60;92.30;;;;;;6208829;28;89224;-68
2023/10/16 06:35:57;;;;;;;12.45;10.57;;;21.60;92.30;;;;;;6217919;28;87953;-67
2023/10/16 06:39:06;;;;;;;11.25;10.15;;;21.60;92.30;;;;;;6229984;28;89062;-67
2023/10/16 06:42:14;;;;;;;10.98;9.88;;;21.60;92.30;;;;;;6206929;28;89029;-67
2023/10/16 06:45:22;;;;;;;10.70;9.70;;;21.60;92.30;;;;;;6226542;28;89336;-67
2023/10/16 06:48:27;;;;;;;11.13;10.02;;;21.60;92.40;;;;;;6217849;28;89843;-67
2023/10/16 06:51:30;;;;;;;11.00;9.85;;;21.60;92.40;;;;;;6220985;28;88454;-67
2023/10/16 06:54:37;;;;;;;11.20;9.73;;;21.60;92.40;;;;;;6222767;28;89235;-66
2023/10/16 06:57:39;;;;;;;10.65;9.48;;;21.60;92.40;;;;;;6223188;28;89077;-67
2023/10/16 07:00:45;;;;;;;10.35;9.35;;;21.60;92.40;;;;;;6229520;28;89893;-67
2023/10/16 07:03:48;;;;;;;10.20;9.20;;;21.60;92.40;;;;;;6211923;28;89013;-67
2023/10/16 07:06:50;;;;;;;11.15;10.05;;;21.60;92.40;;;;;;6221917;28;88979;-67
2023/10/16 07:09:54;;;;;;;12.73;10.38;;;21.60;92.40;;;;;;6222447;28;88258;-67
2023/10/16 07:12:58;;;;;;;11.25;10.07;;;21.60;92.40;;;;;;6208676;28;89047;-67
2023/10/16 07:16:02;;;;;;;10.18;9.18;;;21.60;92.40;;;;;;6210527;28;88996;-67
2023/10/16 07:19:07;;;;;;;10.80;9.80;;;21.60;92.40;;;;;;6219730;28;89063;-67
2023/10/16 07:22:10;;;;;;;10.32;9.23;;;21.60;92.40;;;;;;6206523;28;88306;-67
2023/10/16 07:25:24;;;;;;;9.80;8.80;;;21.60;92.30;;;;;;6222115;28;89074;-67
2023/10/16 07:28:30;;;;;;;10.32;9.32;;;21.60;92.40;;;;;;6217808;28;89331;-67
2023/10/16 07:31:32;;;;;;;10.00;9.00;;;21.60;92.30;;;;;;6213774;28;90012;-67
2023/10/16 07:34:34;;;;;;;10.23;9.27;;;21.60;92.30;;;;;;6216140;28;87879;-67
2023/10/16 07:37:36;;;;;;;9.77;8.77;;;21.60;92.30;;;;;;6224066;28;89032;-67
2023/10/16 07:40:40;;;;;;;10.57;9.55;;;21.60;92.40;;;;;;6222816;28;87859;-67
2023/10/16 07:43:45;;;;;;;10.52;9.43;;;21.60;92.40;;;;;;6217615;28;88989;-67
2023/10/16 07:46:50;;;;;;;10.43;9.43;;;21.60;92.40;;;;;;6222657;28;87920;-68
2023/10/16 07:49:52;;;;;;;9.90;8.90;;;21.60;92.40;;;;;;6210159;28;88089;-67
2023/10/16 07:52:54;;;;;;;10.27;9.27;;;21.60;92.50;;;;;;6210537;28;88318;-67
2023/10/16 07:55:57;;;;;;;10.55;9.55;;;21.60;92.50;;;;;;6212279;28;89065;-67
2023/10/16 07:59:07;;;;;;;10.48;9.48;;;21.60;92.60;;;;;;6215667;28;89007;-67
2023/10/16 08:02:17;;;;;;;10.05;9.15;;;21.60;92.60;;;;;;6213823;28;89976;-67
2023/10/16 08:05:19;;;;;;;11.70;10.50;;;21.60;92.60;;;;;;6221309;28;89197;-67
2023/10/16 08:08:35;;;;;;;12.73;11.35;;;21.60;92.70;;;;;;6221945;28;89085;-67
2023/10/16 08:11:42;;;;;;;12.63;11.32;;;21.60;92.70;;;;;;6232251;28;89082;-68
2023/10/16 08:14:45;;;;;;;13.52;11.93;;;21.60;92.70;;;;;;6228762;28;89427;-67
2023/10/16 08:17:47;;;;;;;14.32;12.82;;;21.50;92.80;;;;;;6219677;28;88931;-69
2023/10/16 08:21:00;;;;;;;13.63;12.20;;;21.60;92.80;;;;;;6210460;28;89290;-68
2023/10/16 08:24:02;;;;;;;13.57;12.18;;;21.60;92.80;;;;;;6211623;28;87379;-67
2023/10/16 08:27:10;;;;;;;14.02;12.63;;;21.60;92.80;;;;;;6217719;28;89106;-68
2023/10/16 08:33:32;;;;;;;15.10;13.50;;;21.60;92.70;;;;;;6222668;28;88802;-67
2023/10/16 08:36:34;;;;;;;14.55;13.15;;;21.60;92.80;;;;;;6214848;28;89116;-67
2023/10/16 08:39:37;;;;;;;15.70;14.10;;;21.60;92.80;;;;;;6218069;28;89069;-67
2023/10/16 08:42:42;;;;;;;15.98;14.27;;;21.60;92.90;;;;;;6232436;28;89183;-67
2023/10/16 08:45:48;;;;;;;14.85;13.35;;;21.50;92.80;;;;;;6229609;28;89102;-67
2023/10/16 08:48:52;;;;;;;15.88;14.13;;;21.60;93.00;;;;;;6218878;28;89244;-67
2023/10/16 08:52:03;;;;;;;15.15;13.65;;;21.60;93.00;;;;;;6218824;28;89614;-68
2023/10/16 08:55:15;;;;;;;15.02;13.52;;;21.60;93.00;;;;;;6210644;28;88775;-68
2023/10/16 08:58:18;;;;;;;15.75;14.15;;;21.60;93.00;;;;;;6228792;28;89073;-67
2023/10/16 09:01:20;;;;;;;16.23;14.52;;;21.60;93.10;;;;;;6226834;28;88984;-67
2023/10/16 09:04:27;;;;;;;16.25;14.55;;;21.50;93.10;;;;;;6219777;28;89839;-68
2023/10/16 09:07:32;;;;;;;16.00;14.30;;;21.50;93.10;;;;;;6222311;28;89005;-68
2023/10/16 09:10:34;;;;;;;16.33;14.65;;;21.50;93.20;;;;;;6224269;28;89590;-68
2023/10/16 09:13:38;;;;;;;16.98;15.18;;;21.50;93.20;;;;;;6226313;28;89637;-67
2023/10/16 09:16:44;;;;;;;15.63;14.00;;;21.60;93.20;;;;;;6219975;28;89173;-67
2023/10/16 09:19:53;;;;;;;16.13;14.50;;;21.60;93.20;;;;;;6214922;28;89072;-68
2023/10/16 09:23:01;;;;;;;16.35;14.65;;;21.60;93.10;;;;;;6217966;28;87951;-68
2023/10/16 09:26:06;;;;;;;15.80;14.20;;;21.60;93.10;;;;;;6222462;28;88379;-68
2023/10/16 09:29:14;;;;;;;16.55;14.88;;;21.60;93.20;;;;;;6220750;28;89253;-67
2023/10/16 09:32:20;;;;;;;16.17;14.52;;;21.60;93.20;;;;;;6219229;28;89114;-67
2023/10/16 09:35:32;;;;;;;16.02;14.35;;;21.60;93.20;;;;;;6220571;28;89962;-67
2023/10/16 09:38:39;;;;;;;16.10;14.48;;;21.60;93.20;;;;;;6217687;28;89134;-67
2023/10/16 09:41:42;;;;;;;16.80;15.00;;;21.50;93.20;;;;;;6215433;28;87919;-67
2023/10/16 09:44:56;;;;;;;16.83;15.02;;;21.50;93.30;;;;;;6225269;28;89065;-68
2023/10/16 09:48:07;;;;;;;16.80;14.95;;;21.60;93.40;;;;;;6219131;28;88282;-67
2023/10/16 09:51:12;;;;;;;15.30;13.80;;;21.50;93.40;;;;;;6218549;28;89012;-67
2023/10/16 09:54:14;;;;;;;15.55;14.05;;;21.60;93.40;;;;;;6215307;28;89472;-68
2023/10/16 09:57:22;;;;;;;16.48;14.85;;;21.50;93.40;;;;;;6218204;28;88573;-68
2023/10/16 10:00:32;;;;;;;15.95;14.32;;;21.50;93.40;;;;;;6212012;28;89196;-67
2023/10/16 10:03:37;;;;;;;15.82;14.20;;;21.50;93.50;;;;;;6209989;28;89378;-67
2023/10/16 10:06:42;;;;;;;16.10;14.48;;;21.50;93.50;;;;;;6212403;28;90031;-67
2023/10/16 10:09:47;;;;;;;15.18;13.43;;;21.60;93.60;;;;;;6214418;28;89139;-68
2023/10/16 10:12:52;;;;;;;15.73;14.10;;;21.60;93.50;;;;;;6207048;28;89091;-67
2023/10/16 10:15:58;;;;;;;15.27;13.68;;;21.60;93.60;;;;;;6212430;28;89145;-68
2023/10/16 10:19:01;;;;;;;15.73;13.75;;;21.60;93.60;;;;;;6210192;28;89042;-68
2023/10/16 10:22:16;;;;;;;13.52;12.07;;;21.60;93.60;;;;;;6214704;28;89152;-67
2023/10/16 10:25:29;;;;;;;12.05;10.77;;;21.50;93.10;;;;;;6209327;28;89270;-68
2023/10/16 10:28:32;;;;;;;13.25;11.18;;;21.60;92.40;;;;;;6220933;28;88407;-67
2023/10/16 10:31:37;;;;;;;12.48;11.15;;;21.60;92.40;;;;;;6217715;28;89015;-67
2023/10/16 10:34:39;;;;;;;12.18;10.88;;;21.60;92.60;;;;;;6212002;28;89560;-68
2023/10/16 10:37:48;;;;;;;11.98;10.77;;;21.60;92.60;;;;;;6216349;28;90381;-68
2023/10/16 10:41:15;;;;;;;13.48;10.68;;;21.60;92.70;;;;;;6218661;28;88962;-69
2023/10/16 10:44:19;;;;;;;12.32;10.98;;;21.60;92.80;;;;;;6226067;28;89871;-69
2023/10/16 10:47:32;;;;;;;11.25;10.15;;;21.60;92.80;;;;;;6210593;28;89159;-70
2023/10/16 10:50:35;;;;;;;11.45;10.25;;;21.60;92.80;;;;;;6223786;28;89195;-69
2023/10/16 10:53:40;;;;;;;11.00;9.90;;;21.60;92.80;;;;;;6209785;28;89120;-69
2023/10/16 10:57:07;;;;;;;11.63;10.40;;;21.50;93.00;;;;;;6212290;28;89311;-69
2023/10/16 11:00:25;;;;;;;12.45;11.18;;;21.60;93.10;;;;;;6219761;28;88337;-69
2023/10/16 11:03:44;;;;;;;11.73;10.45;;;21.60;93.20;;;;;;6229994;28;87754;-69
2023/10/16 11:06:52;;;;;;;11.57;10.38;;;21.60;93.20;;;;;;6224681;28;88433;-69
2023/10/16 11:09:57;;;;;;;14.13;11.80;;;21.60;93.30;;;;;;6216945;28;88838;-69
2023/10/16 11:13:04;;;;;;;14.10;11.80;;;21.60;93.40;;;;;;6230432;28;89357;-69
2023/10/16 11:16:09;;;;;;;12.73;11.43;;;21.60;93.40;;;;;;6230118;28;89046;-68
2023/10/16 11:19:23;;;;;;;12.15;10.90;;;21.60;93.60;;;;;;6218318;28;89077;-70
2023/10/16 11:22:27;;;;;;;11.95;10.75;;;21.60;93.60;;;;;;6214996;28;89091;-70
2023/10/16 11:25:29;;;;;;;12.10;10.80;;;21.60;93.70;;;;;;6216901;28;89066;-70
2023/10/16 11:28:32;;;;;;;13.88;11.93;;;21.50;93.70;;;;;;6204814;28;89091;-69
2023/10/16 11:31:40;;;;;;;12.65;11.35;;;21.60;93.80;;;;;;6218061;28;88319;-69
2023/10/16 11:34:44;;;;;;;12.88;11.52;;;21.60;93.90;;;;;;6216400;28;87962;-69
2023/10/16 11:37:52;;;;;;;13.57;12.02;;;21.60;93.90;;;;;;6212376;28;89202;-69
2023/10/16 11:40:54;;;;;;;13.05;11.70;;;21.60;94.00;;;;;;6226237;28;89904;-69
2023/10/16 11:44:01;;;;;;;12.35;11.05;;;21.50;93.90;;;;;;6218336;28;88996;-69
2023/10/16 11:47:08;;;;;;;12.32;11.02;;;21.60;94.00;;;;;;6221832;28;89123;-70
2023/10/16 11:50:17;;;;;;;12.00;10.80;;;21.60;94.10;;;;;;6210702;28;89129;-69
2023/10/16 11:53:23;;;;;;;12.73;11.43;;;21.60;94.10;;;;;;6209145;28;89162;-69
2023/10/16 11:56:25;;;;;;;12.68;11.38;;;21.60;94.10;;;;;;6214719;28;89205;-69
2023/10/16 11:59:29;;;;;;;12.52;11.23;;;21.60;94.00;;;;;;6215395;28;89502;-68
2023/10/16 12:02:31;;;;;;;12.02;10.73;;;21.60;94.10;;;;;;6210495;28;88290;-68
2023/10/16 12:05:35;;;;;;;14.10;11.93;;;21.60;94.00;;;;;;6218313;28;89052;-69
2023/10/16 12:08:40;;;;;;;12.45;11.15;;;21.60;94.00;;;;;;6209672;28;89019;-68
2023/10/16 12:11:43;;;;;;;12.77;11.20;;;21.60;93.90;;;;;;6223652;28;90460;-69
2023/10/16 12:14:45;;;;;;;13.40;11.57;;;21.60;93.90;;;;;;6206513;28;89507;-69
2023/10/16 12:17:46;;;;;;;13.00;11.55;;;21.60;93.90;;;;;;6215179;28;89002;-68
2023/10/16 12:20:50;;;;;;;12.93;11.60;;;21.60;93.80;;;;;;6211113;28;89416;-70
2023/10/16 12:23:52;;;;;;;12.85;11.02;;;21.60;94.10;;;;;;6213828;28;88023;-69
2023/10/16 12:26:54;;;;;;;13.48;10.95;;;21.60;94.30;;;;;;6208887;28;87977;-69
2023/10/16 12:29:56;;;;;;;16.40;11.50;;;21.60;94.40;;;;;;6208416;28;88999;-69
2023/10/16 12:32:59;;;;;;;13.15;10.65;;;21.70;94.80;;;;;;6215589;28;88683;-69
2023/10/16 12:36:07;;;;;;;13.80;11.63;;;21.60;94.60;;;;;;6219860;28;91787;-69
2023/10/16 12:39:16;;;;;;;14.07;10.95;;;21.60;94.60;;;;;;6205861;28;89431;-69
2023/10/16 12:42:20;;;;;;;14.43;11.13;;;21.70;94.60;;;;;;6207217;28;90090;-70
2023/10/16 12:45:23;;;;;;;14.15;10.93;;;21.60;94.50;;;;;;6212719;28;89486;-69
2023/10/16 12:48:29;;;;;;;12.57;10.82;;;21.70;94.50;;;;;;6209970;28;89134;-69
2023/10/16 12:51:33;;;;;;;13.13;10.82;;;21.60;94.40;;;;;;6213092;28;89037;-69
2023/10/16 12:54:35;;;;;;;13.88;10.60;;;21.60;94.40;;;;;;6209890;28;89133;-68
2023/10/16 12:57:37;;;;;;;11.10;9.98;;;21.60;94.40;;;;;;6213759;28;89149;-69
2023/10/16 13:00:39;;;;;;;11.90;10.60;;;21.60;94.40;;;;;;6224135;28;88993;-68
2023/10/16 13:03:41;;;;;;;11.75;9.98;;;21.70;94.40;;;;;;6217014;28;88446;-69
2023/10/16 13:06:45;;;;;;;12.88;10.50;;;21.60;94.40;;;;;;6213556;28;89116;-69
2023/10/16 13:09:47;;;;;;;12.35;10.35;;;21.60;94.40;;;;;;6220533;28;89142;-69
2023/10/16 13:12:49;;;;;;;11.43;9.93;;;21.60;94.40;;;;;;6229303;28;90417;-68
2023/10/16 13:15:54;;;;;;;13.95;9.95;;;21.60;94.40;;;;;;6210187;28;89355;-68
2023/10/16 13:18:58;;;;;;;10.50;9.45;;;21.70;94.40;;;;;;6216857;28;89225;-69
2023/10/16 13:22:10;;;;;;;10.98;9.82;;;21.60;94.40;;;;;;6219694;28;87948;-68
2023/10/16 13:25:13;;;;;;;11.57;9.70;;;21.60;94.40;;;;;;6220341;28;89234;-69
2023/10/16 13:28:15;;;;;;;11.90;9.63;;;21.60;94.40;;;;;;6219631;28;89753;-69
2023/10/16 13:31:19;;;;;;;11.57;9.38;;;21.70;94.40;;;;;;6213003;28;89099;-69
2023/10/16 13:34:21;;;;;;;12.55;10.10;;;21.70;94.40;;;;;;6217283;28;88649;-69
2023/10/16 13:37:25;;;;;;;12.50;9.77;;;21.60;94.40;;;;;;6222312;28;89026;-70
2023/10/16 13:40:28;;;;;;;16.17;12.88;;;21.70;94.70;;;;;;6218389;28;89098;-69
2023/10/16 13:43:30;;;;;;;13.15;11.50;;;21.70;96.40;;;;;;6223611;28;90305;-68
2023/10/16 13:46:32;;;;;;;13.27;11.65;;;21.80;95.50;;;;;;6217043;28;89461;-68
2023/10/16 13:49:37;;;;;;;12.35;10.60;;;21.80;95.60;;;;;;6210855;28;88225;-68
2023/10/16 13:52:42;;;;;;;12.77;10.65;;;21.80;95.20;;;;;;6223688;28;89055;-68
2023/10/16 13:55:44;;;;;;;12.48;10.85;;;21.80;95.10;;;;;;6210722;28;89020;-68
2023/10/16 13:58:49;;;;;;;11.48;9.90;;;21.80;95.10;;;;;;6217503;28;89405;-68
2023/10/16 14:01:51;;;;;;;11.63;9.73;;;21.80;95.00;;;;;;6223994;28;89203;-69
2023/10/16 14:04:54;;;;;;;13.10;9.85;;;21.80;95.00;;;;;;6229542;28;88296;-68
2023/10/16 14:08:00;;;;;;;12.50;9.70;;;21.80;95.00;;;;;;6222116;28;89084;-68
2023/10/16 14:11:03;;;;;;;10.90;8.82;;;21.80;95.00;;;;;;6222068;28;89104;-68
2023/10/16 14:14:10;;;;;;;11.18;8.82;;;21.80;94.90;;;;;;6219152;28;89967;-68
2023/10/16 14:17:18;;;;;;;10.32;8.55;;;21.80;94.90;;;;;;6220177;28;89862;-68
2023/10/16 14:20:34;;;;;;;10.90;8.55;;;21.80;94.90;;;;;;6219225;28;89109;-68
2023/10/16 14:23:38;;;;;;;9.88;8.45;;;21.80;94.90;;;;;;6217149;28;88064;-68
2023/10/16 14:26:40;;;;;;;10.00;8.30;;;21.80;94.90;;;;;;6223388;28;88984;-68
2023/10/16 14:29:45;;;;;;;9.75;8.15;;;21.80;94.90;;;;;;6229224;28;89229;-68
2023/10/16 14:32:48;;;;;;;11.65;8.77;;;21.80;94.80;;;;;;6216337;28;89057;-68
2023/10/16 14:35:50;;;;;;;10.40;7.82;;;21.80;94.80;;;;;;6217034;28;88422;-68
2023/10/16 14:38:55;;;;;;;13.48;8.52;;;21.80;94.80;;;;;;6213276;28;88231;-68
2023/10/16 14:42:01;;;;;;;9.77;7.78;;;21.80;94.80;;;;;;6216084;28;89066;-68
2023/10/16 14:45:06;;;;;;;9.10;7.80;;;21.80;94.80;;;;;;6228346;28;90130;-68
2023/10/16 14:48:09;;;;;;;8.70;7.50;;;21.80;94.80;;;;;;6222504;28;89164;-69
2023/10/16 14:51:12;;;;;;;8.48;7.57;;;21.80;94.80;;;;;;6218074;28;89177;-68
2023/10/16 14:54:16;;;;;;;8.07;7.28;;;21.80;94.80;;;;;;6219168;28;89261;-68
2023/10/16 14:57:24;;;;;;;7.70;6.90;;;21.80;94.80;;;;;;6224298;28;89011;-68
2023/10/16 15:00:37;;;;;;;8.35;7.50;;;21.80;94.80;;;;;;6225506;28;89060;-68
2023/10/16 15:03:39;;;;;;;8.82;7.25;;;21.80;94.80;;;;;;6216207;28;88435;-68
2023/10/16 15:06:41;;;;;;;7.55;6.78;;;21.80;94.80;;;;;;6206341;28;89004;-68
2023/10/16 15:09:45;;;;;;;8.82;7.05;;;21.80;94.70;;;;;;6222228;28;88995;-68
2023/10/16 15:12:47;;;;;;;7.20;6.50;;;21.80;94.60;;;;;;6222252;28;88990;-68
2023/10/16 15:15:50;;;;;;;7.50;6.07;;;21.80;94.50;;;;;;6208930;28;90143;-68
2023/10/16 15:18:55;;;;;;;7.90;6.03;;;21.80;94.50;;;;;;6223417;28;89035;-68
2023/10/16 15:21:58;;;;;;;6.82;6.10;;;21.80;94.50;;;;;;6210104;28;89312;-69
2023/10/16 15:25:02;;;;;;;7.38;5.88;;;21.90;94.50;;;;;;6219444;28;87941;-67
2023/10/16 15:28:06;;;;;;;9.73;6.10;;;21.90;94.50;;;;;;6212248;28;89488;-68
2023/10/16 15:31:09;;;;;;;8.45;6.10;;;21.90;94.40;;;;;;6212467;28;89334;-67
2023/10/16 15:34:12;;;;;;;7.18;5.65;;;21.90;94.40;;;;;;6214137;28;89130;-69
2023/10/16 15:37:15;;;;;;;8.00;6.18;;;22.00;94.40;;;;;;6215755;28;88892;-69
2023/10/16 15:40:20;;;;;;;7.18;5.78;;;22.00;94.30;;;;;;6206107;28;89355;-70
2023/10/16 15:43:22;;;;;;;7.40;6.10;;;22.10;94.40;;;;;;6223144;28;89040;-69
2023/10/16 15:46:27;;;;;;;7.88;5.55;;;22.00;94.30;;;;;;6203333;28;90027;-69
2023/10/16 15:49:29;;;;;;;9.70;5.75;;;22.10;94.30;;;;;;6210910;28;90029;-69
2023/10/16 15:52:32;;;;;;;6.90;5.65;;;22.10;94.30;;;;;;6212873;28;89072;-69
2023/10/16 15:55:36;;;;;;;7.88;5.00;;;22.10;94.30;;;;;;6213070;28;88033;-69
2023/10/16 15:58:41;;;;;;;6.55;5.40;;;22.10;94.20;;;;;;6226811;28;89093;-69
2023/10/16 16:01:48;;;;;;;6.95;5.30;;;22.20;94.20;;;;;;6225502;28;87232;-69
2023/10/16 16:04:54;;;;;;;6.75;5.32;;;22.20;94.20;;;;;;6216637;28;87860;-70
2023/10/16 16:07:58;;;;;;;6.32;5.28;;;22.20;94.20;;;;;;6215733;28;87519;-68
2023/10/16 16:11:03;;;;;;;6.03;5.07;;;22.20;94.50;;;;;;6214444;28;88549;-69
2023/10/16 16:14:12;;;;;;;6.53;4.60;;;22.20;94.10;;;;;;6222180;28;88158;-69
2023/10/16 16:17:16;;;;;;;5.95;4.32;;;22.30;94.00;;;;;;6210088;28;88648;-68
2023/10/16 16:20:21;;;;;;;7.57;5.30;;;22.30;94.00;;;;;;6205858;28;87255;-69
2023/10/16 16:23:25;;;;;;;5.70;5.00;;;22.30;94.00;;;;;;6220693;28;88046;-68
2023/10/16 16:26:30;;;;;;;6.30;4.45;;;22.30;94.00;;;;;;6206395;28;88011;-70
2023/10/16 16:29:34;;;;;;;5.00;4.50;;;22.30;94.10;;;;;;6216177;28;88011;-68
2023/10/16 16:32:39;;;;;;;7.72;5.25;;;22.30;94.10;;;;;;6225704;28;88215;-67
2023/10/16 16:35:43;;;;;;;5.32;4.65;;;22.30;94.10;;;;;;6227992;28;87682;-68
2023/10/16 16:38:47;;;;;;;7.95;4.82;;;22.30;94.10;;;;;;6216181;28;87370;-68
2023/10/16 16:41:53;;;;;;;7.95;4.72;;;22.30;94.00;;;;;;6219471;28;87913;-69
2023/10/16 16:44:57;;;;;;;7.45;4.65;;;22.30;94.10;;;;;;6222713;28;88623;-69
2023/10/16 16:48:01;;;;;;;6.82;5.00;;;22.30;94.10;;;;;;6215294;28;89702;-70
2023/10/16 16:51:06;;;;;;;5.32;4.10;;;22.30;94.00;;;;;;6217074;28;87988;-69
2023/10/16 16:54:11;;;;;;;5.80;4.22;;;22.30;94.00;;;;;;6216054;28;88110;-69
2023/10/16 16:57:17;;;;;;;5.30;4.15;;;22.40;94.00;;;;;;6220971;28;88527;-69
2023/10/16 17:00:26;;;;;;;5.13;4.32;;;22.40;94.00;;;;;;6225347;28;87999;-69